DLH420 KLAX-KPDX
Flight info
| Callsign | DLH420 |
|---|---|
| Flight time | N/A |
| Altitude | 40000 |
| Route | LADYJ4 CSTRO SHIMR LMT MOXEE TMBRS4 |
| Aircraft | A35K/H-SDE2E3GHIJ3J4J5LM1ORWXY/LB1D1 |
Departure
| Time | 2026-05-05 17:50 |
|---|---|
| Airport | Los Angeles International Airport (KLAX) |
Arrival
| Time | N/A |
|---|---|
| Airport | Portland International Airport (KPDX) |
| Time | Latitude | Longitude | Altitude | Speed | Heading |
|---|---|---|---|---|---|
| 2026-05-05 17:24 | 33.94099 | -118.41094 | 132 ft | 0 kts | 82° |
| 2026-05-05 17:37 | 33.94098 | -118.41103 | 126 ft | 2 kts | 82° |
| 2026-05-05 17:37 | 33.94096 | -118.41127 | 132 ft | 3 kts | 82° |
| 2026-05-05 17:38 | 33.94094 | -118.41142 | 132 ft | 2 kts | 83° |
| 2026-05-05 17:38 | 33.94092 | -118.41162 | 132 ft | 3 kts | 72° |
| 2026-05-05 17:38 | 33.94083 | -118.41182 | 126 ft | 3 kts | 39° |
| 2026-05-05 17:38 | 33.94067 | -118.41192 | 126 ft | 3 kts | 3° |
| 2026-05-05 17:39 | 33.94047 | -118.41190 | 126 ft | 3 kts | 349° |
| 2026-05-05 17:39 | 33.94030 | -118.41186 | 132 ft | 1 kts | 353° |
| 2026-05-05 17:39 | 33.94025 | -118.41186 | 132 ft | 0 kts | 353° |
| 2026-05-05 17:45 | 33.94027 | -118.41186 | 132 ft | 2 kts | 353° |
| 2026-05-05 17:45 | 33.94072 | -118.41193 | 124 ft | 10 kts | 353° |
| 2026-05-05 17:45 | 33.94154 | -118.41205 | 124 ft | 13 kts | 353° |
| 2026-05-05 17:46 | 33.94256 | -118.41220 | 130 ft | 16 kts | 353° |
| 2026-05-05 17:46 | 33.94379 | -118.41238 | 128 ft | 19 kts | 353° |
| 2026-05-05 17:46 | 33.94518 | -118.41259 | 129 ft | 22 kts | 353° |
| 2026-05-05 17:46 | 33.94668 | -118.41281 | 126 ft | 19 kts | 353° |
| 2026-05-05 17:47 | 33.94772 | -118.41286 | 130 ft | 8 kts | 22° |
| 2026-05-05 17:47 | 33.94799 | -118.41224 | 123 ft | 13 kts | 73° |
| 2026-05-05 17:47 | 33.94813 | -118.41105 | 128 ft | 16 kts | 83° |
| 2026-05-05 17:47 | 33.94828 | -118.40960 | 122 ft | 19 kts | 83° |
| 2026-05-05 17:48 | 33.94845 | -118.40793 | 131 ft | 22 kts | 83° |
| 2026-05-05 17:48 | 33.94864 | -118.40602 | 123 ft | 24 kts | 83° |
| 2026-05-05 17:48 | 33.94884 | -118.40399 | 131 ft | 24 kts | 83° |
| 2026-05-05 17:48 | 33.94906 | -118.40192 | 120 ft | 26 kts | 83° |
| 2026-05-05 17:49 | 33.94924 | -118.40027 | 131 ft | 19 kts | 83° |
| 2026-05-05 17:49 | 33.94960 | -118.39932 | 122 ft | 14 kts | 31° |
| 2026-05-05 17:49 | 33.95036 | -118.39977 | 124 ft | 15 kts | 279° |
| 2026-05-05 17:49 | 33.95028 | -118.40123 | 129 ft | 19 kts | 265° |
| 2026-05-05 17:50 | 33.95011 | -118.40289 | 131 ft | 23 kts | 261° |
| 2026-05-05 17:50 | 33.94961 | -118.40754 | 123 ft | 95 kts | 263° |
| 2026-05-05 17:50 | 33.94847 | -118.41832 | 182 ft | 158 kts | 262° |
| 2026-05-05 17:50 | 33.94687 | -118.43254 | 729 ft | 181 kts | 261° |
| 2026-05-05 17:51 | 33.94510 | -118.44823 | 1586 ft | 196 kts | 262° |
| 2026-05-05 17:51 | 33.94340 | -118.46478 | 2604 ft | 201 kts | 264° |
| 2026-05-05 17:51 | 33.94233 | -118.48201 | 3437 ft | 208 kts | 267° |
| 2026-05-05 17:51 | 33.94169 | -118.49959 | 4187 ft | 212 kts | 269° |
| 2026-05-05 17:52 | 33.94118 | -118.51751 | 4947 ft | 216 kts | 269° |
| 2026-05-05 17:52 | 33.94052 | -118.53576 | 5644 ft | 223 kts | 268° |
| 2026-05-05 17:52 | 33.93943 | -118.55527 | 6048 ft | 243 kts | 268° |
| 2026-05-05 17:52 | 33.93816 | -118.57629 | 6541 ft | 258 kts | 267° |
| 2026-05-05 17:53 | 33.93624 | -118.59776 | 7331 ft | 260 kts | 265° |
| 2026-05-05 17:53 | 33.93591 | -118.61946 | 7815 ft | 269 kts | 280° |
| 2026-05-05 17:53 | 33.94424 | -118.63954 | 8289 ft | 270 kts | 313° |
| 2026-05-05 17:53 | 33.95864 | -118.65393 | 8587 ft | 269 kts | 327° |
| 2026-05-05 17:54 | 33.97497 | -118.66520 | 8880 ft | 280 kts | 331° |
| 2026-05-05 17:54 | 33.99272 | -118.67563 | 9622 ft | 283 kts | 341° |
| 2026-05-05 17:54 | 34.01208 | -118.67853 | 10474 ft | 284 kts | 1° |
| 2026-05-05 17:54 | 34.03258 | -118.67656 | 10708 ft | 308 kts | 4° |
| 2026-05-05 17:55 | 34.05468 | -118.67405 | 10907 ft | 331 kts | 4° |
| 2026-05-05 17:55 | 34.07835 | -118.67120 | 11129 ft | 350 kts | 6° |
| 2026-05-05 17:55 | 34.10264 | -118.66619 | 11692 ft | 357 kts | 9° |
| 2026-05-05 17:55 | 34.12715 | -118.66007 | 12324 ft | 363 kts | 10° |
| 2026-05-05 17:56 | 34.15207 | -118.65391 | 12973 ft | 366 kts | 9° |
| 2026-05-05 17:56 | 34.17724 | -118.64817 | 13618 ft | 369 kts | 9° |
| 2026-05-05 17:56 | 34.20265 | -118.64236 | 14128 ft | 374 kts | 9° |
| 2026-05-05 17:56 | 34.22848 | -118.63630 | 14526 ft | 382 kts | 10° |
| 2026-05-05 17:57 | 34.25480 | -118.63148 | 15167 ft | 377 kts | 1° |
| 2026-05-05 17:57 | 34.28050 | -118.63420 | 16216 ft | 366 kts | 347° |
| 2026-05-05 17:57 | 34.30543 | -118.64158 | 16672 ft | 374 kts | 345° |
| 2026-05-05 17:57 | 34.33060 | -118.64932 | 17139 ft | 380 kts | 346° |
| 2026-05-05 17:58 | 34.35661 | -118.65656 | 17664 ft | 385 kts | 347° |
| 2026-05-05 17:58 | 34.38292 | -118.66330 | 18265 ft | 387 kts | 348° |
| 2026-05-05 17:58 | 34.40950 | -118.66975 | 18755 ft | 391 kts | 348° |
| 2026-05-05 17:58 | 34.43631 | -118.67608 | 19272 ft | 394 kts | 349° |
| 2026-05-05 17:59 | 34.46339 | -118.68169 | 19791 ft | 396 kts | 350° |
| 2026-05-05 17:59 | 34.49071 | -118.68691 | 20295 ft | 399 kts | 351° |
| 2026-05-05 17:59 | 34.51820 | -118.69216 | 20820 ft | 401 kts | 351° |
| 2026-05-05 17:59 | 34.54556 | -118.69743 | 21319 ft | 403 kts | 351° |
| 2026-05-05 18:00 | 34.57376 | -118.70289 | 21844 ft | 406 kts | 351° |
| 2026-05-05 18:00 | 34.60127 | -118.70824 | 22353 ft | 408 kts | 351° |
| 2026-05-05 18:00 | 34.62920 | -118.71371 | 23078 ft | 403 kts | 351° |
| 2026-05-05 18:00 | 34.65683 | -118.71909 | 23694 ft | 403 kts | 351° |
| 2026-05-05 18:01 | 34.68471 | -118.72458 | 24021 ft | 408 kts | 351° |
| 2026-05-05 18:01 | 34.71252 | -118.73238 | 24371 ft | 412 kts | 344° |
| 2026-05-05 18:01 | 34.73929 | -118.74527 | 24724 ft | 417 kts | 335° |
| 2026-05-05 18:01 | 34.76504 | -118.76199 | 25093 ft | 421 kts | 333° |
| 2026-05-05 18:02 | 34.79058 | -118.77955 | 25465 ft | 424 kts | 332° |
| 2026-05-05 18:02 | 34.81629 | -118.79736 | 25900 ft | 425 kts | 333° |
| 2026-05-05 18:02 | 34.84213 | -118.81524 | 26277 ft | 429 kts | 333° |
| 2026-05-05 18:02 | 34.86818 | -118.83323 | 26707 ft | 431 kts | 333° |
| 2026-05-05 18:03 | 34.89439 | -118.85127 | 27124 ft | 434 kts | 333° |
| 2026-05-05 18:03 | 34.92081 | -118.86948 | 27573 ft | 437 kts | 333° |
| 2026-05-05 18:03 | 34.94740 | -118.88779 | 28015 ft | 441 kts | 333° |
| 2026-05-05 18:03 | 34.97416 | -118.90624 | 28477 ft | 444 kts | 333° |
| 2026-05-05 18:04 | 35.00109 | -118.92481 | 28945 ft | 447 kts | 334° |
| 2026-05-05 18:04 | 35.02820 | -118.94354 | 29456 ft | 448 kts | 334° |
| 2026-05-05 18:04 | 35.05513 | -118.96214 | 29899 ft | 451 kts | 334° |
| 2026-05-05 18:04 | 35.08242 | -118.98098 | 30432 ft | 452 kts | 334° |
| 2026-05-05 18:05 | 35.10989 | -118.99999 | 30778 ft | 456 kts | 334° |
| 2026-05-05 18:05 | 35.13764 | -119.01920 | 31086 ft | 461 kts | 334° |
| 2026-05-05 18:05 | 35.16568 | -119.03863 | 31412 ft | 465 kts | 334° |
| 2026-05-05 18:05 | 35.19394 | -119.05824 | 31732 ft | 469 kts | 334° |
| 2026-05-05 18:06 | 35.22240 | -119.07800 | 32054 ft | 472 kts | 334° |
| 2026-05-05 18:06 | 35.24173 | -119.09143 | 32253 ft | 474 kts | 334° |
| 2026-05-05 18:06 | 35.27410 | -119.11392 | 32580 ft | 478 kts | 334° |
| 2026-05-05 18:06 | 35.30315 | -119.13413 | 32880 ft | 481 kts | 334° |
| 2026-05-05 18:07 | 35.33221 | -119.15438 | 33270 ft | 482 kts | 334° |
| 2026-05-05 18:07 | 35.36138 | -119.17471 | 33691 ft | 482 kts | 334° |
| 2026-05-05 18:07 | 35.39055 | -119.19508 | 34074 ft | 483 kts | 334° |
| 2026-05-05 18:07 | 35.41972 | -119.21535 | 34446 ft | 482 kts | 335° |
| 2026-05-05 18:08 | 35.44985 | -119.23290 | 34815 ft | 478 kts | 341° |
| 2026-05-05 18:08 | 35.48136 | -119.24543 | 35166 ft | 475 kts | 347° |
| 2026-05-05 18:08 | 35.51333 | -119.25592 | 35515 ft | 475 kts | 348° |
| 2026-05-05 18:08 | 35.54542 | -119.26556 | 35834 ft | 475 kts | 348° |
| 2026-05-05 18:09 | 35.57761 | -119.27488 | 36150 ft | 476 kts | 348° |
| 2026-05-05 18:09 | 35.60985 | -119.28416 | 36588 ft | 473 kts | 349° |
| 2026-05-05 18:09 | 35.64190 | -119.29346 | 36979 ft | 473 kts | 348° |
| 2026-05-05 18:09 | 35.67395 | -119.30286 | 37279 ft | 474 kts | 348° |
| 2026-05-05 18:10 | 35.70606 | -119.31238 | 37575 ft | 475 kts | 348° |
| 2026-05-05 18:10 | 35.73818 | -119.32198 | 37896 ft | 475 kts | 347° |
| 2026-05-05 18:10 | 35.76991 | -119.33150 | 38192 ft | 476 kts | 347° |
| 2026-05-05 18:10 | 35.80204 | -119.34118 | 38542 ft | 474 kts | 347° |
| 2026-05-05 18:11 | 35.83406 | -119.35083 | 38921 ft | 472 kts | 347° |
| 2026-05-05 18:11 | 35.86601 | -119.36046 | 39133 ft | 473 kts | 347° |
| 2026-05-05 18:11 | 35.89802 | -119.37011 | 39335 ft | 474 kts | 347° |
| 2026-05-05 18:11 | 35.93001 | -119.37975 | 39544 ft | 474 kts | 347° |
| 2026-05-05 18:12 | 35.96217 | -119.38946 | 39761 ft | 475 kts | 347° |
| 2026-05-05 18:12 | 35.99425 | -119.39915 | 39968 ft | 475 kts | 347° |
| 2026-05-05 18:12 | 36.02647 | -119.40890 | 40050 ft | 475 kts | 347° |
| 2026-05-05 18:13 | 36.09057 | -119.42830 | 40058 ft | 474 kts | 347° |
| 2026-05-05 18:13 | 36.15464 | -119.44772 | 40060 ft | 474 kts | 347° |
| 2026-05-05 18:14 | 36.21874 | -119.46721 | 40062 ft | 474 kts | 347° |
| 2026-05-05 18:14 | 36.28293 | -119.48673 | 40064 ft | 474 kts | 347° |
| 2026-05-05 18:15 | 36.34661 | -119.50613 | 40064 ft | 474 kts | 347° |
| 2026-05-05 18:15 | 36.41069 | -119.52571 | 40071 ft | 474 kts | 347° |
| 2026-05-05 18:16 | 36.47477 | -119.54532 | 40065 ft | 474 kts | 348° |
| 2026-05-05 18:16 | 36.53885 | -119.56492 | 40061 ft | 474 kts | 348° |
| 2026-05-05 18:17 | 36.60286 | -119.58456 | 40056 ft | 473 kts | 348° |
| 2026-05-05 18:17 | 36.66674 | -119.60419 | 40060 ft | 472 kts | 348° |
| 2026-05-05 18:18 | 36.73053 | -119.62382 | 40063 ft | 472 kts | 348° |
| 2026-05-05 18:18 | 36.79437 | -119.64350 | 40065 ft | 472 kts | 348° |
| 2026-05-05 18:19 | 36.85783 | -119.66310 | 40063 ft | 472 kts | 348° |
| 2026-05-05 18:19 | 36.92169 | -119.68286 | 40059 ft | 472 kts | 348° |
| 2026-05-05 18:20 | 36.98546 | -119.70265 | 40048 ft | 472 kts | 348° |
| 2026-05-05 18:20 | 37.04907 | -119.72242 | 40049 ft | 470 kts | 348° |
| 2026-05-05 18:21 | 37.11260 | -119.74217 | 40043 ft | 470 kts | 348° |
| 2026-05-05 18:21 | 37.17603 | -119.76193 | 40038 ft | 470 kts | 349° |
| 2026-05-05 18:22 | 37.23943 | -119.78173 | 40041 ft | 469 kts | 349° |
| 2026-05-05 18:22 | 37.29205 | -119.79817 | 40047 ft | 468 kts | 349° |
| 2026-05-05 18:23 | 37.35533 | -119.81798 | 40046 ft | 468 kts | 349° |
| 2026-05-05 18:23 | 37.41856 | -119.83784 | 40050 ft | 468 kts | 349° |
| 2026-05-05 18:24 | 37.48181 | -119.85771 | 40055 ft | 467 kts | 349° |
| 2026-05-05 18:24 | 37.54448 | -119.87742 | 40052 ft | 467 kts | 349° |
| 2026-05-05 18:25 | 37.60769 | -119.89738 | 40055 ft | 468 kts | 350° |
| 2026-05-05 18:25 | 37.67089 | -119.91736 | 40063 ft | 468 kts | 349° |
| 2026-05-05 18:26 | 37.73409 | -119.93736 | 40049 ft | 468 kts | 350° |
| 2026-05-05 18:26 | 37.79720 | -119.95733 | 40057 ft | 467 kts | 350° |
| 2026-05-05 18:27 | 37.86021 | -119.97732 | 40054 ft | 466 kts | 350° |
| 2026-05-05 18:27 | 37.92313 | -119.99733 | 40053 ft | 466 kts | 350° |
| 2026-05-05 18:28 | 38.01743 | -120.02741 | 40046 ft | 464 kts | 350° |
| 2026-05-05 18:28 | 38.07970 | -120.04730 | 40036 ft | 464 kts | 350° |
| 2026-05-05 18:29 | 38.10119 | -120.05417 | 40035 ft | 464 kts | 350° |
| 2026-05-05 18:30 | 38.15000 | -120.06979 | 40042 ft | 463 kts | 350° |
| 2026-05-05 18:31 | 38.21247 | -120.08982 | 40037 ft | 462 kts | 350° |
| 2026-05-05 18:31 | 38.27460 | -120.11095 | 40032 ft | 464 kts | 348° |
| 2026-05-05 18:32 | 38.33622 | -120.13569 | 40030 ft | 464 kts | 347° |
| 2026-05-05 18:32 | 38.39734 | -120.16063 | 40021 ft | 463 kts | 347° |
| 2026-05-05 18:33 | 38.45884 | -120.18522 | 40032 ft | 463 kts | 347° |
| 2026-05-05 18:33 | 38.52038 | -120.20958 | 40018 ft | 462 kts | 348° |
| 2026-05-05 18:34 | 38.58180 | -120.23381 | 40023 ft | 461 kts | 348° |
| 2026-05-05 18:34 | 38.64302 | -120.25806 | 40021 ft | 461 kts | 348° |
| 2026-05-05 18:35 | 38.71375 | -120.28616 | 40031 ft | 461 kts | 348° |
| 2026-05-05 18:35 | 38.95712 | -120.38321 | 40012 ft | 459 kts | 348° |
| 2026-05-05 18:36 | 39.20089 | -120.48111 | 40040 ft | 457 kts | 348° |
| 2026-05-05 18:36 | 39.44336 | -120.57925 | 39974 ft | 456 kts | 348° |
| 2026-05-05 18:37 | 39.68477 | -120.67762 | 39974 ft | 455 kts | 348° |
| 2026-05-05 18:37 | 39.92632 | -120.77680 | 39957 ft | 455 kts | 348° |
| 2026-05-05 18:38 | 40.16750 | -120.87656 | 39952 ft | 453 kts | 348° |
| 2026-05-05 18:38 | 40.40806 | -120.97680 | 39945 ft | 454 kts | 348° |
| 2026-05-05 18:39 | 40.64908 | -121.07800 | 39954 ft | 454 kts | 348° |
| 2026-05-05 18:39 | 40.88920 | -121.17960 | 39971 ft | 451 kts | 348° |
| 2026-05-05 18:40 | 41.12664 | -121.28080 | 39960 ft | 450 kts | 347° |
| 2026-05-05 18:40 | 41.36467 | -121.38307 | 39964 ft | 449 kts | 347° |
| 2026-05-05 18:41 | 41.60282 | -121.48615 | 39952 ft | 449 kts | 347° |